Gubkin, Russia
Current Conditions -  °F | °C
As of 10:30 PM on Thursday 27 Nov 2014 (Local Time) from UUOB Reporting Station
Broken Clouds Broken Clouds  
Wind Chill: 15°   Ceiling: 4000
Heat Index: 23°   Visibility: 6mi
Dew Point:   Wind: 7mph
Humidity: 54%   Direction: 70°ENE
Pressure: 30.33"   Gusts: NA
Location:  51.28°N, 37.39°E
Report Text: UUOB 271930Z 07003MPS 9999 BKN040 BKN070 M05/M13 Q1027 11090060NOSIG
Loading
Personal Weather Stations






























Interactive Weather Map New forecast layout! Learn more

10-Day Weather Forecast

Advertisements
Track Severe Weather on mobile